sensor_id;sensor_type;location;lat;lon;timestamp;P1;durP1;ratioP1;P2;durP2;ratioP2
59410;SDS011;45215;32.610;-115.482;2022-10-16T00:00:38;59.92;;;40.20;;
59410;SDS011;45215;32.610;-115.482;2022-10-16T00:03:05;58.55;;;37.85;;
59410;SDS011;45215;32.610;-115.482;2022-10-16T00:05:32;58.28;;;36.60;;
59410;SDS011;45215;32.610;-115.482;2022-10-16T00:08:02;63.33;;;36.58;;
59410;SDS011;45215;32.610;-115.482;2022-10-16T00:10:29;55.08;;;35.33;;
59410;SDS011;45215;32.610;-115.482;2022-10-16T00:12:55;54.47;;;34.92;;
59410;SDS011;45215;32.610;-115.482;2022-10-16T00:15:21;56.80;;;35.75;;
59410;SDS011;45215;32.610;-115.482;2022-10-16T00:17:47;54.15;;;34.83;;
59410;SDS011;45215;32.610;-115.482;2022-10-16T00:20:13;55.00;;;35.25;;
59410;SDS011;45215;32.610;-115.482;2022-10-16T00:22:40;54.97;;;35.97;;
59410;SDS011;45215;32.610;-115.482;2022-10-16T00:25:06;60.03;;;37.03;;
59410;SDS011;45215;32.610;-115.482;2022-10-16T00:27:33;57.30;;;36.67;;
59410;SDS011;45215;32.610;-115.482;2022-10-16T00:29:59;56.55;;;36.63;;
59410;SDS011;45215;32.610;-115.482;2022-10-16T00:32:25;57.75;;;37.15;;
59410;SDS011;45215;32.610;-115.482;2022-10-16T00:34:51;56.50;;;36.25;;
59410;SDS011;45215;32.610;-115.482;2022-10-16T00:37:20;55.95;;;37.05;;
59410;SDS011;45215;32.610;-115.482;2022-10-16T00:39:46;51.78;;;34.78;;
59410;SDS011;45215;32.610;-115.482;2022-10-16T00:42:14;54.72;;;34.75;;
59410;SDS011;45215;32.610;-115.482;2022-10-16T00:44:52;54.80;;;34.83;;
59410;SDS011;45215;32.610;-115.482;2022-10-16T00:50:07;50.30;;;32.97;;
59410;SDS011;45215;32.610;-115.482;2022-10-16T00:52:39;52.40;;;33.28;;
59410;SDS011;45215;32.610;-115.482;2022-10-16T00:55:10;50.25;;;32.92;;
59410;SDS011;45215;32.610;-115.482;2022-10-16T00:57:36;52.85;;;33.13;;
59410;SDS011;45215;32.610;-115.482;2022-10-16T01:00:04;49.22;;;31.95;;
59410;SDS011;45215;32.610;-115.482;2022-10-16T01:02:31;48.15;;;31.13;;
59410;SDS011;45215;32.610;-115.482;2022-10-16T01:04:57;45.97;;;29.60;;
59410;SDS011;45215;32.610;-115.482;2022-10-16T01:07:32;45.70;;;29.70;;
59410;SDS011;45215;32.610;-115.482;2022-10-16T01:12:45;44.45;;;28.42;;
59410;SDS011;45215;32.610;-115.482;2022-10-16T01:21:05;39.97;;;26.33;;
59410;SDS011;45215;32.610;-115.482;2022-10-16T01:23:44;38.45;;;24.85;;
59410;SDS011;45215;32.610;-115.482;2022-10-16T01:26:40;36.47;;;24.08;;
59410;SDS011;45215;32.610;-115.482;2022-10-16T01:29:13;34.50;;;23.35;;
59410;SDS011;45215;32.610;-115.482;2022-10-16T01:31:45;37.42;;;22.77;;
59410;SDS011;45215;32.610;-115.482;2022-10-16T01:34:18;34.90;;;23.40;;
59410;SDS011;45215;32.610;-115.482;2022-10-16T01:36:51;32.58;;;22.85;;
59410;SDS011;45215;32.610;-115.482;2022-10-16T01:39:22;29.85;;;20.73;;
59410;SDS011;45215;32.610;-115.482;2022-10-16T01:41:55;31.38;;;21.98;;
59410;SDS011;45215;32.610;-115.482;2022-10-16T01:44:28;31.02;;;21.17;;
59410;SDS011;45215;32.610;-115.482;2022-10-16T01:46:56;29.50;;;20.60;;
59410;SDS011;45215;32.610;-115.482;2022-10-16T01:49:23;29.70;;;20.08;;
59410;SDS011;45215;32.610;-115.482;2022-10-16T01:51:54;25.92;;;19.13;;
59410;SDS011;45215;32.610;-115.482;2022-10-16T01:54:25;25.20;;;18.02;;
59410;SDS011;45215;32.610;-115.482;2022-10-16T01:56:55;27.80;;;18.85;;
59410;SDS011;45215;32.610;-115.482;2022-10-16T01:59:23;29.13;;;19.63;;
59410;SDS011;45215;32.610;-115.482;2022-10-16T02:01:54;27.73;;;19.92;;
59410;SDS011;45215;32.610;-115.482;2022-10-16T02:06:54;28.08;;;20.02;;
59410;SDS011;45215;32.610;-115.482;2022-10-16T02:09:21;27.75;;;19.17;;
59410;SDS011;45215;32.610;-115.482;2022-10-16T02:11:47;27.20;;;19.13;;
59410;SDS011;45215;32.610;-115.482;2022-10-16T02:14:14;26.50;;;18.95;;
59410;SDS011;45215;32.610;-115.482;2022-10-16T02:16:42;26.98;;;18.90;;
59410;SDS011;45215;32.610;-115.482;2022-10-16T02:19:10;25.95;;;18.17;;
59410;SDS011;45215;32.610;-115.482;2022-10-16T02:26:48;23.65;;;17.08;;
59410;SDS011;45215;32.610;-115.482;2022-10-16T02:29:27;26.10;;;17.23;;
59410;SDS011;45215;32.610;-115.482;2022-10-16T02:31:55;26.20;;;16.45;;
59410;SDS011;45215;32.610;-115.482;2022-10-16T02:34:28;26.15;;;16.52;;
59410;SDS011;45215;32.610;-115.482;2022-10-16T02:37:00;22.33;;;16.13;;
59410;SDS011;45215;32.610;-115.482;2022-10-16T02:39:29;24.33;;;16.55;;
59410;SDS011;45215;32.610;-115.482;2022-10-16T02:41:56;22.83;;;16.25;;
59410;SDS011;45215;32.610;-115.482;2022-10-16T02:44:22;21.92;;;15.30;;
59410;SDS011;45215;32.610;-115.482;2022-10-16T02:46:48;20.05;;;14.55;;
59410;SDS011;45215;32.610;-115.482;2022-10-16T02:49:14;20.10;;;14.52;;
59410;SDS011;45215;32.610;-115.482;2022-10-16T02:51:41;19.33;;;14.60;;
59410;SDS011;45215;32.610;-115.482;2022-10-16T02:54:07;18.88;;;13.70;;
59410;SDS011;45215;32.610;-115.482;2022-10-16T02:56:33;21.13;;;14.63;;
59410;SDS011;45215;32.610;-115.482;2022-10-16T02:58:59;18.52;;;13.65;;
59410;SDS011;45215;32.610;-115.482;2022-10-16T03:01:25;17.63;;;13.52;;
59410;SDS011;45215;32.610;-115.482;2022-10-16T03:03:51;20.48;;;13.57;;
59410;SDS011;45215;32.610;-115.482;2022-10-16T03:06:18;18.27;;;13.63;;
59410;SDS011;45215;32.610;-115.482;2022-10-16T03:08:44;17.65;;;13.00;;
59410;SDS011;45215;32.610;-115.482;2022-10-16T03:11:10;18.75;;;13.05;;
59410;SDS011;45215;32.610;-115.482;2022-10-16T03:13:36;19.83;;;13.77;;
59410;SDS011;45215;32.610;-115.482;2022-10-16T03:16:02;20.42;;;13.90;;
59410;SDS011;45215;32.610;-115.482;2022-10-16T03:18:29;31.05;;;23.15;;
59410;SDS011;45215;32.610;-115.482;2022-10-16T03:20:55;33.08;;;24.60;;
59410;SDS011;45215;32.610;-115.482;2022-10-16T03:23:23;36.13;;;26.42;;
59410;SDS011;45215;32.610;-115.482;2022-10-16T03:25:52;34.03;;;28.17;;
59410;SDS011;45215;32.610;-115.482;2022-10-16T03:28:19;35.78;;;28.80;;
59410;SDS011;45215;32.610;-115.482;2022-10-16T03:30:45;31.98;;;26.00;;
59410;SDS011;45215;32.610;-115.482;2022-10-16T03:33:11;29.58;;;24.05;;
59410;SDS011;45215;32.610;-115.482;2022-10-16T03:35:37;29.35;;;23.33;;
59410;SDS011;45215;32.610;-115.482;2022-10-16T03:38:03;27.23;;;22.98;;
59410;SDS011;45215;32.610;-115.482;2022-10-16T03:40:29;27.75;;;21.88;;
59410;SDS011;45215;32.610;-115.482;2022-10-16T03:42:57;28.42;;;20.88;;
59410;SDS011;45215;32.610;-115.482;2022-10-16T03:45:24;25.90;;;20.00;;
59410;SDS011;45215;32.610;-115.482;2022-10-16T03:47:50;25.52;;;19.70;;
59410;SDS011;45215;32.610;-115.482;2022-10-16T03:50:16;22.95;;;17.88;;
59410;SDS011;45215;32.610;-115.482;2022-10-16T03:52:42;23.52;;;17.85;;
59410;SDS011;45215;32.610;-115.482;2022-10-16T03:55:08;23.77;;;17.75;;
59410;SDS011;45215;32.610;-115.482;2022-10-16T03:57:35;21.67;;;16.50;;
59410;SDS011;45215;32.610;-115.482;2022-10-16T04:00:01;21.92;;;16.05;;
59410;SDS011;45215;32.610;-115.482;2022-10-16T04:02:28;19.92;;;15.68;;
59410;SDS011;45215;32.610;-115.482;2022-10-16T04:04:54;20.27;;;15.00;;
59410;SDS011;45215;32.610;-115.482;2022-10-16T04:07:20;21.25;;;15.32;;
59410;SDS011;45215;32.610;-115.482;2022-10-16T04:09:46;19.17;;;14.30;;
59410;SDS011;45215;32.610;-115.482;2022-10-16T04:12:12;18.88;;;13.70;;
59410;SDS011;45215;32.610;-115.482;2022-10-16T04:14:39;19.40;;;13.95;;
59410;SDS011;45215;32.610;-115.482;2022-10-16T04:17:05;19.13;;;13.43;;
59410;SDS011;45215;32.610;-115.482;2022-10-16T04:19:31;19.27;;;12.77;;
59410;SDS011;45215;32.610;-115.482;2022-10-16T04:21:57;18.83;;;12.23;;
59410;SDS011;45215;32.610;-115.482;2022-10-16T04:24:23;16.42;;;12.27;;
59410;SDS011;45215;32.610;-115.482;2022-10-16T04:26:49;17.17;;;7.22;;
59410;SDS011;45215;32.610;-115.482;2022-10-16T04:29:16;13.82;;;8.30;;
59410;SDS011;45215;32.610;-115.482;2022-10-16T04:31:42;17.58;;;11.27;;
59410;SDS011;45215;32.610;-115.482;2022-10-16T04:34:09;14.63;;;10.25;;
59410;SDS011;45215;32.610;-115.482;2022-10-16T04:36:35;17.65;;;11.07;;
59410;SDS011;45215;32.610;-115.482;2022-10-16T04:39:01;14.70;;;9.68;;
59410;SDS011;45215;32.610;-115.482;2022-10-16T04:41:27;14.93;;;9.65;;
59410;SDS011;45215;32.610;-115.482;2022-10-16T04:43:53;14.15;;;10.43;;
59410;SDS011;45215;32.610;-115.482;2022-10-16T04:46:19;12.80;;;9.90;;
59410;SDS011;45215;32.610;-115.482;2022-10-16T04:48:45;11.65;;;9.05;;
59410;SDS011;45215;32.610;-115.482;2022-10-16T04:51:12;14.05;;;9.68;;
59410;SDS011;45215;32.610;-115.482;2022-10-16T04:53:38;12.63;;;8.68;;
59410;SDS011;45215;32.610;-115.482;2022-10-16T04:56:04;11.45;;;8.45;;
59410;SDS011;45215;32.610;-115.482;2022-10-16T04:58:30;9.52;;;7.82;;
59410;SDS011;45215;32.610;-115.482;2022-10-16T05:00:56;10.75;;;8.07;;
59410;SDS011;45215;32.610;-115.482;2022-10-16T05:03:23;11.00;;;8.02;;
59410;SDS011;45215;32.610;-115.482;2022-10-16T05:05:49;11.82;;;7.90;;
59410;SDS011;45215;32.610;-115.482;2022-10-16T05:08:15;13.05;;;7.45;;
59410;SDS011;45215;32.610;-115.482;2022-10-16T05:10:42;9.43;;;7.15;;
59410;SDS011;45215;32.610;-115.482;2022-10-16T05:13:09;10.07;;;6.93;;
59410;SDS011;45215;32.610;-115.482;2022-10-16T05:15:36;9.88;;;6.85;;
59410;SDS011;45215;32.610;-115.482;2022-10-16T05:18:03;14.32;;;6.90;;
59410;SDS011;45215;32.610;-115.482;2022-10-16T05:20:29;11.45;;;6.85;;
59410;SDS011;45215;32.610;-115.482;2022-10-16T05:22:56;8.98;;;6.63;;
59410;SDS011;45215;32.610;-115.482;2022-10-16T05:25:22;10.63;;;6.50;;
59410;SDS011;45215;32.610;-115.482;2022-10-16T05:27:48;15.95;;;6.10;;
59410;SDS011;45215;32.610;-115.482;2022-10-16T05:30:15;7.60;;;5.80;;
59410;SDS011;45215;32.610;-115.482;2022-10-16T05:32:45;8.50;;;6.13;;
59410;SDS011;45215;32.610;-115.482;2022-10-16T05:35:13;7.85;;;5.50;;
59410;SDS011;45215;32.610;-115.482;2022-10-16T05:37:39;6.93;;;5.45;;
59410;SDS011;45215;32.610;-115.482;2022-10-16T05:40:09;7.95;;;5.32;;
59410;SDS011;45215;32.610;-115.482;2022-10-16T05:42:35;8.07;;;5.80;;
59410;SDS011;45215;32.610;-115.482;2022-10-16T05:45:03;7.70;;;5.70;;
59410;SDS011;45215;32.610;-115.482;2022-10-16T05:47:30;8.27;;;5.30;;
59410;SDS011;45215;32.610;-115.482;2022-10-16T05:49:56;6.78;;;5.40;;
59410;SDS011;45215;32.610;-115.482;2022-10-16T05:52:22;7.43;;;5.05;;
59410;SDS011;45215;32.610;-115.482;2022-10-16T05:54:49;7.10;;;4.97;;
59410;SDS011;45215;32.610;-115.482;2022-10-16T05:57:15;6.55;;;5.10;;
59410;SDS011;45215;32.610;-115.482;2022-10-16T05:59:41;7.25;;;5.03;;
59410;SDS011;45215;32.610;-115.482;2022-10-16T06:02:10;6.72;;;4.70;;
59410;SDS011;45215;32.610;-115.482;2022-10-16T06:04:38;7.32;;;4.82;;
59410;SDS011;45215;32.610;-115.482;2022-10-16T06:07:04;7.10;;;4.80;;
59410;SDS011;45215;32.610;-115.482;2022-10-16T06:09:30;5.80;;;4.38;;
59410;SDS011;45215;32.610;-115.482;2022-10-16T06:11:57;6.38;;;4.20;;
59410;SDS011;45215;32.610;-115.482;2022-10-16T06:14:23;5.30;;;4.05;;
59410;SDS011;45215;32.610;-115.482;2022-10-16T06:16:49;5.22;;;3.97;;
59410;SDS011;45215;32.610;-115.482;2022-10-16T06:19:16;5.50;;;4.20;;
59410;SDS011;45215;32.610;-115.482;2022-10-16T06:21:42;6.00;;;3.72;;
59410;SDS011;45215;32.610;-115.482;2022-10-16T06:24:09;5.05;;;3.80;;
59410;SDS011;45215;32.610;-115.482;2022-10-16T06:26:36;5.43;;;3.90;;
59410;SDS011;45215;32.610;-115.482;2022-10-16T06:29:03;5.05;;;3.70;;
59410;SDS011;45215;32.610;-115.482;2022-10-16T06:31:30;4.97;;;3.58;;
59410;SDS011;45215;32.610;-115.482;2022-10-16T06:33:58;4.43;;;3.55;;
59410;SDS011;45215;32.610;-115.482;2022-10-16T06:36:25;3.92;;;3.50;;
59410;SDS011;45215;32.610;-115.482;2022-10-16T06:38:52;4.10;;;3.70;;
59410;SDS011;45215;32.610;-115.482;2022-10-16T06:41:19;4.07;;;3.35;;
59410;SDS011;45215;32.610;-115.482;2022-10-16T06:43:47;5.10;;;3.63;;
59410;SDS011;45215;32.610;-115.482;2022-10-16T06:46:14;4.53;;;3.45;;
59410;SDS011;45215;32.610;-115.482;2022-10-16T06:48:42;3.83;;;3.35;;
59410;SDS011;45215;32.610;-115.482;2022-10-16T06:51:09;3.78;;;3.10;;
59410;SDS011;45215;32.610;-115.482;2022-10-16T06:53:38;4.45;;;3.20;;
59410;SDS011;45215;32.610;-115.482;2022-10-16T06:56:15;5.03;;;3.50;;
59410;SDS011;45215;32.610;-115.482;2022-10-16T06:58:44;3.60;;;2.97;;
59410;SDS011;45215;32.610;-115.482;2022-10-16T07:01:10;4.47;;;3.35;;
59410;SDS011;45215;32.610;-115.482;2022-10-16T07:03:38;3.60;;;2.80;;
59410;SDS011;45215;32.610;-115.482;2022-10-16T07:06:06;3.78;;;3.10;;
59410;SDS011;45215;32.610;-115.482;2022-10-16T07:08:33;5.13;;;3.08;;
59410;SDS011;45215;32.610;-115.482;2022-10-16T07:11:01;4.20;;;3.30;;
59410;SDS011;45215;32.610;-115.482;2022-10-16T07:13:29;4.35;;;3.45;;
59410;SDS011;45215;32.610;-115.482;2022-10-16T07:15:55;3.55;;;3.05;;
59410;SDS011;45215;32.610;-115.482;2022-10-16T07:18:21;4.18;;;2.90;;
59410;SDS011;45215;32.610;-115.482;2022-10-16T07:20:51;3.42;;;2.75;;
59410;SDS011;45215;32.610;-115.482;2022-10-16T07:23:18;4.15;;;2.97;;
59410;SDS011;45215;32.610;-115.482;2022-10-16T07:25:44;4.03;;;3.20;;
59410;SDS011;45215;32.610;-115.482;2022-10-16T07:28:10;3.95;;;2.95;;
59410;SDS011;45215;32.610;-115.482;2022-10-16T07:30:36;3.83;;;3.15;;
59410;SDS011;45215;32.610;-115.482;2022-10-16T07:33:02;4.50;;;3.22;;
59410;SDS011;45215;32.610;-115.482;2022-10-16T07:35:28;3.92;;;2.97;;
59410;SDS011;45215;32.610;-115.482;2022-10-16T07:37:55;3.63;;;2.97;;
59410;SDS011;45215;32.610;-115.482;2022-10-16T07:40:21;3.83;;;2.90;;
59410;SDS011;45215;32.610;-115.482;2022-10-16T07:42:47;3.30;;;2.65;;
59410;SDS011;45215;32.610;-115.482;2022-10-16T07:45:13;3.25;;;2.70;;
59410;SDS011;45215;32.610;-115.482;2022-10-16T07:47:39;3.53;;;2.72;;
59410;SDS011;45215;32.610;-115.482;2022-10-16T07:50:05;3.33;;;2.75;;
59410;SDS011;45215;32.610;-115.482;2022-10-16T07:52:32;3.70;;;3.13;;
59410;SDS011;45215;32.610;-115.482;2022-10-16T07:54:58;3.22;;;2.50;;
59410;SDS011;45215;32.610;-115.482;2022-10-16T07:57:24;3.13;;;2.60;;
59410;SDS011;45215;32.610;-115.482;2022-10-16T07:59:50;2.90;;;2.45;;
59410;SDS011;45215;32.610;-115.482;2022-10-16T08:02:16;2.67;;;2.47;;
59410;SDS011;45215;32.610;-115.482;2022-10-16T08:04:42;2.92;;;2.63;;
59410;SDS011;45215;32.610;-115.482;2022-10-16T08:07:08;3.33;;;2.60;;
59410;SDS011;45215;32.610;-115.482;2022-10-16T08:09:34;3.00;;;2.60;;
59410;SDS011;45215;32.610;-115.482;2022-10-16T08:12:01;3.70;;;2.90;;
59410;SDS011;45215;32.610;-115.482;2022-10-16T08:14:27;3.55;;;3.13;;
59410;SDS011;45215;32.610;-115.482;2022-10-16T08:16:54;3.95;;;2.75;;
59410;SDS011;45215;32.610;-115.482;2022-10-16T08:19:20;3.10;;;2.80;;
59410;SDS011;45215;32.610;-115.482;2022-10-16T08:21:49;2.90;;;2.55;;
59410;SDS011;45215;32.610;-115.482;2022-10-16T08:24:15;2.95;;;2.60;;
59410;SDS011;45215;32.610;-115.482;2022-10-16T08:26:41;2.58;;;2.33;;
59410;SDS011;45215;32.610;-115.482;2022-10-16T08:29:07;3.00;;;2.70;;
59410;SDS011;45215;32.610;-115.482;2022-10-16T08:31:33;3.40;;;2.60;;
59410;SDS011;45215;32.610;-115.482;2022-10-16T08:34:00;2.80;;;2.50;;
59410;SDS011;45215;32.610;-115.482;2022-10-16T08:36:26;7.57;;;2.75;;
59410;SDS011;45215;32.610;-115.482;2022-10-16T08:38:52;3.45;;;2.80;;
59410;SDS011;45215;32.610;-115.482;2022-10-16T08:44:26;3.10;;;2.38;;
59410;SDS011;45215;32.610;-115.482;2022-10-16T08:49:26;3.20;;;2.90;;
59410;SDS011;45215;32.610;-115.482;2022-10-16T08:51:54;2.90;;;2.55;;
59410;SDS011;45215;32.610;-115.482;2022-10-16T08:57:00;2.72;;;2.50;;
59410;SDS011;45215;32.610;-115.482;2022-10-16T08:59:34;3.53;;;2.92;;
59410;SDS011;45215;32.610;-115.482;2022-10-16T09:02:00;2.88;;;2.60;;
59410;SDS011;45215;32.610;-115.482;2022-10-16T09:04:32;4.03;;;2.50;;
59410;SDS011;45215;32.610;-115.482;2022-10-16T09:07:11;2.97;;;2.63;;
59410;SDS011;45215;32.610;-115.482;2022-10-16T09:10:00;2.80;;;2.60;;
59410;SDS011;45215;32.610;-115.482;2022-10-16T09:12:44;2.78;;;2.50;;
59410;SDS011;45215;32.610;-115.482;2022-10-16T09:15:21;2.95;;;2.65;;
59410;SDS011;45215;32.610;-115.482;2022-10-16T09:20:49;2.70;;;2.50;;
59410;SDS011;45215;32.610;-115.482;2022-10-16T09:23:22;2.83;;;2.55;;
59410;SDS011;45215;32.610;-115.482;2022-10-16T09:25:52;3.10;;;2.45;;
59410;SDS011;45215;32.610;-115.482;2022-10-16T09:28:21;3.35;;;2.40;;
59410;SDS011;45215;32.610;-115.482;2022-10-16T09:30:47;2.85;;;2.20;;
59410;SDS011;45215;32.610;-115.482;2022-10-16T09:33:15;2.50;;;2.30;;
59410;SDS011;45215;32.610;-115.482;2022-10-16T09:35:50;4.78;;;2.63;;
59410;SDS011;45215;32.610;-115.482;2022-10-16T09:38:22;2.83;;;2.58;;
59410;SDS011;45215;32.610;-115.482;2022-10-16T09:40:54;2.97;;;2.58;;
59410;SDS011;45215;32.610;-115.482;2022-10-16T09:43:30;3.15;;;2.72;;
59410;SDS011;45215;32.610;-115.482;2022-10-16T09:45:59;2.80;;;2.50;;
59410;SDS011;45215;32.610;-115.482;2022-10-16T09:48:30;2.90;;;2.55;;
59410;SDS011;45215;32.610;-115.482;2022-10-16T09:51:06;3.03;;;2.72;;
59410;SDS011;45215;32.610;-115.482;2022-10-16T09:53:53;3.95;;;2.63;;
59410;SDS011;45215;32.610;-115.482;2022-10-16T09:56:23;2.70;;;2.50;;
59410;SDS011;45215;32.610;-115.482;2022-10-16T10:01:22;3.88;;;2.60;;
59410;SDS011;45215;32.610;-115.482;2022-10-16T10:03:55;2.63;;;2.20;;
59410;SDS011;45215;32.610;-115.482;2022-10-16T10:06:28;2.35;;;2.15;;
59410;SDS011;45215;32.610;-115.482;2022-10-16T10:09:02;2.65;;;2.45;;
59410;SDS011;45215;32.610;-115.482;2022-10-16T10:14:40;4.00;;;2.60;;
59410;SDS011;45215;32.610;-115.482;2022-10-16T10:22:39;2.22;;;1.90;;
59410;SDS011;45215;32.610;-115.482;2022-10-16T10:25:14;2.60;;;2.40;;
59410;SDS011;45215;32.610;-115.482;2022-10-16T10:33:19;2.67;;;2.05;;
59410;SDS011;45215;32.610;-115.482;2022-10-16T10:38:47;2.40;;;2.20;;
59410;SDS011;45215;32.610;-115.482;2022-10-16T10:47:32;2.97;;;1.90;;
59410;SDS011;45215;32.610;-115.482;2022-10-16T10:52:48;2.72;;;1.83;;
59410;SDS011;45215;32.610;-115.482;2022-10-16T10:55:31;2.13;;;1.65;;
59410;SDS011;45215;32.610;-115.482;2022-10-16T11:06:33;2.15;;;1.58;;
59410;SDS011;45215;32.610;-115.482;2022-10-16T11:14:29;1.52;;;1.42;;
59410;SDS011;45215;32.610;-115.482;2022-10-16T11:17:19;1.60;;;1.50;;
59410;SDS011;45215;32.610;-115.482;2022-10-16T11:19:52;1.98;;;1.42;;
59410;SDS011;45215;32.610;-115.482;2022-10-16T11:22:33;1.40;;;1.30;;
59410;SDS011;45215;32.610;-115.482;2022-10-16T11:25:28;1.67;;;1.38;;
59410;SDS011;45215;32.610;-115.482;2022-10-16T11:30:47;1.60;;;1.40;;
59410;SDS011;45215;32.610;-115.482;2022-10-16T11:35:55;1.55;;;1.38;;
59410;SDS011;45215;32.610;-115.482;2022-10-16T11:38:48;1.80;;;1.35;;
59410;SDS011;45215;32.610;-115.482;2022-10-16T11:41:48;1.67;;;1.45;;
59410;SDS011;45215;32.610;-115.482;2022-10-16T11:44:20;1.73;;;1.42;;
59410;SDS011;45215;32.610;-115.482;2022-10-16T11:49:45;1.55;;;1.23;;
59410;SDS011;45215;32.610;-115.482;2022-10-16T11:52:33;1.38;;;1.23;;
59410;SDS011;45215;32.610;-115.482;2022-10-16T11:57:51;1.45;;;1.15;;
59410;SDS011;45215;32.610;-115.482;2022-10-16T12:08:21;1.10;;;1.00;;
59410;SDS011;45215;32.610;-115.482;2022-10-16T12:10:48;1.38;;;1.20;;
59410;SDS011;45215;32.610;-115.482;2022-10-16T12:13:28;1.25;;;1.15;;
59410;SDS011;45215;32.610;-115.482;2022-10-16T12:18:38;1.30;;;1.20;;
59410;SDS011;45215;32.610;-115.482;2022-10-16T12:21:05;1.23;;;1.00;;
59410;SDS011;45215;32.610;-115.482;2022-10-16T12:23:33;1.20;;;1.10;;
59410;SDS011;45215;32.610;-115.482;2022-10-16T12:26:04;1.40;;;1.20;;
59410;SDS011;45215;32.610;-115.482;2022-10-16T12:28:34;1.83;;;1.20;;
59410;SDS011;45215;32.610;-115.482;2022-10-16T12:31:02;1.73;;;1.20;;
59410;SDS011;45215;32.610;-115.482;2022-10-16T12:33:35;1.30;;;1.20;;
59410;SDS011;45215;32.610;-115.482;2022-10-16T12:36:15;1.30;;;1.20;;
59410;SDS011;45215;32.610;-115.482;2022-10-16T12:38:53;1.30;;;1.20;;
59410;SDS011;45215;32.610;-115.482;2022-10-16T12:41:30;1.60;;;1.10;;
59410;SDS011;45215;32.610;-115.482;2022-10-16T12:43:59;1.23;;;1.10;;
59410;SDS011;45215;32.610;-115.482;2022-10-16T12:51:40;1.35;;;1.10;;
59410;SDS011;45215;32.610;-115.482;2022-10-16T12:54:18;1.20;;;1.10;;
59410;SDS011;45215;32.610;-115.482;2022-10-16T12:57:00;2.00;;;1.15;;
59410;SDS011;45215;32.610;-115.482;2022-10-16T13:10:41;2.47;;;1.10;;
59410;SDS011;45215;32.610;-115.482;2022-10-16T13:13:38;1.20;;;1.00;;
59410;SDS011;45215;32.610;-115.482;2022-10-16T13:16:30;1.05;;;0.95;;
59410;SDS011;45215;32.610;-115.482;2022-10-16T13:21:55;1.23;;;1.10;;
59410;SDS011;45215;32.610;-115.482;2022-10-16T13:24:55;1.20;;;1.10;;
59410;SDS011;45215;32.610;-115.482;2022-10-16T13:30:31;1.23;;;1.00;;
59410;SDS011;45215;32.610;-115.482;2022-10-16T13:33:10;1.10;;;1.00;;
59410;SDS011;45215;32.610;-115.482;2022-10-16T13:35:46;1.17;;;1.02;;
59410;SDS011;45215;32.610;-115.482;2022-10-16T13:40:57;1.50;;;1.40;;
59410;SDS011;45215;32.610;-115.482;2022-10-16T13:43:35;1.27;;;1.17;;
59410;SDS011;45215;32.610;-115.482;2022-10-16T13:48:30;1.48;;;1.30;;
59410;SDS011;45215;32.610;-115.482;2022-10-16T13:51:01;1.63;;;1.10;;
59410;SDS011;45215;32.610;-115.482;2022-10-16T13:53:30;1.90;;;1.38;;
59410;SDS011;45215;32.610;-115.482;2022-10-16T13:55:58;1.30;;;1.13;;
59410;SDS011;45215;32.610;-115.482;2022-10-16T13:58:25;1.40;;;1.17;;
59410;SDS011;45215;32.610;-115.482;2022-10-16T14:00:58;1.48;;;1.38;;
59410;SDS011;45215;32.610;-115.482;2022-10-16T14:03:27;1.58;;;1.48;;
59410;SDS011;45215;32.610;-115.482;2022-10-16T14:05:56;1.58;;;1.48;;
59410;SDS011;45215;32.610;-115.482;2022-10-16T14:08:26;1.67;;;1.58;;
59410;SDS011;45215;32.610;-115.482;2022-10-16T14:10:55;2.40;;;1.65;;
59410;SDS011;45215;32.610;-115.482;2022-10-16T14:13:29;1.70;;;1.60;;
59410;SDS011;45215;32.610;-115.482;2022-10-16T14:16:07;1.58;;;1.48;;
59410;SDS011;45215;32.610;-115.482;2022-10-16T14:18:37;2.72;;;1.80;;
59410;SDS011;45215;32.610;-115.482;2022-10-16T14:21:05;3.20;;;1.83;;
59410;SDS011;45215;32.610;-115.482;2022-10-16T14:23:37;1.80;;;1.70;;
59410;SDS011;45215;32.610;-115.482;2022-10-16T14:28:35;1.83;;;1.63;;
59410;SDS011;45215;32.610;-115.482;2022-10-16T14:33:59;2.95;;;1.83;;
59410;SDS011;45215;32.610;-115.482;2022-10-16T14:36:27;1.75;;;1.60;;
59410;SDS011;45215;32.610;-115.482;2022-10-16T14:41:32;1.42;;;1.33;;
59410;SDS011;45215;32.610;-115.482;2022-10-16T14:44:06;1.70;;;1.60;;
59410;SDS011;45215;32.610;-115.482;2022-10-16T14:46:36;2.17;;;1.60;;
59410;SDS011;45215;32.610;-115.482;2022-10-16T14:54:10;1.65;;;1.42;;
59410;SDS011;45215;32.610;-115.482;2022-10-16T15:02:23;1.48;;;1.38;;
59410;SDS011;45215;32.610;-115.482;2022-10-16T15:04:50;1.50;;;1.40;;
59410;SDS011;45215;32.610;-115.482;2022-10-16T15:07:17;1.50;;;1.40;;
59410;SDS011;45215;32.610;-115.482;2022-10-16T15:09:43;1.40;;;1.30;;
59410;SDS011;45215;32.610;-115.482;2022-10-16T15:12:09;1.40;;;1.30;;
59410;SDS011;45215;32.610;-115.482;2022-10-16T15:14:35;1.60;;;1.33;;
59410;SDS011;45215;32.610;-115.482;2022-10-16T15:17:02;2.30;;;1.30;;
59410;SDS011;45215;32.610;-115.482;2022-10-16T15:19:29;1.77;;;1.40;;
59410;SDS011;45215;32.610;-115.482;2022-10-16T15:21:56;3.03;;;1.45;;
59410;SDS011;45215;32.610;-115.482;2022-10-16T15:24:22;1.45;;;1.35;;
59410;SDS011;45215;32.610;-115.482;2022-10-16T15:26:48;1.38;;;1.20;;
59410;SDS011;45215;32.610;-115.482;2022-10-16T16:08:19;3.55;;;1.67;;
59410;SDS011;45215;32.610;-115.482;2022-10-16T16:10:56;6.72;;;1.50;;
59410;SDS011;45215;32.610;-115.482;2022-10-16T16:13:26;4.63;;;1.52;;
59410;SDS011;45215;32.610;-115.482;2022-10-16T16:15:53;2.35;;;1.52;;
59410;SDS011;45215;32.610;-115.482;2022-10-16T16:18:20;4.53;;;1.52;;
59410;SDS011;45215;32.610;-115.482;2022-10-16T16:20:49;3.00;;;1.48;;
59410;SDS011;45215;32.610;-115.482;2022-10-16T16:23:18;1.77;;;1.52;;
59410;SDS011;45215;32.610;-115.482;2022-10-16T16:25:45;1.45;;;1.35;;
59410;SDS011;45215;32.610;-115.482;2022-10-16T16:28:27;4.13;;;2.17;;
59410;SDS011;45215;32.610;-115.482;2022-10-16T16:30:53;2.33;;;2.00;;
59410;SDS011;45215;32.610;-115.482;2022-10-16T16:33:19;7.05;;;2.38;;
59410;SDS011;45215;32.610;-115.482;2022-10-16T16:35:45;1.95;;;1.80;;
59410;SDS011;45215;32.610;-115.482;2022-10-16T16:38:11;3.80;;;2.17;;
59410;SDS011;45215;32.610;-115.482;2022-10-16T16:40:37;2.58;;;1.90;;
59410;SDS011;45215;32.610;-115.482;2022-10-16T16:43:04;2.22;;;1.95;;
59410;SDS011;45215;32.610;-115.482;2022-10-16T16:45:30;3.15;;;2.10;;
59410;SDS011;45215;32.610;-115.482;2022-10-16T16:47:56;3.22;;;1.95;;
59410;SDS011;45215;32.610;-115.482;2022-10-16T16:50:22;8.85;;;6.85;;
59410;SDS011;45215;32.610;-115.482;2022-10-16T16:52:48;26.38;;;14.85;;
59410;SDS011;45215;32.610;-115.482;2022-10-16T16:55:14;23.98;;;18.45;;
59410;SDS011;45215;32.610;-115.482;2022-10-16T16:57:40;109.38;;;87.30;;
59410;SDS011;45215;32.610;-115.482;2022-10-16T17:00:07;83.78;;;71.28;;
59410;SDS011;45215;32.610;-115.482;2022-10-16T17:02:34;68.60;;;60.08;;
59410;SDS011;45215;32.610;-115.482;2022-10-16T17:05:00;70.97;;;59.28;;
59410;SDS011;45215;32.610;-115.482;2022-10-16T17:07:26;69.68;;;56.55;;
59410;SDS011;45215;32.610;-115.482;2022-10-16T17:09:57;72.40;;;57.17;;
59410;SDS011;45215;32.610;-115.482;2022-10-16T17:12:24;80.53;;;53.58;;